Nearby METAR Reports

 

KSJC - San Jose, California, USA
Distance from station: NE 14km
Updated: 22/05/2024 17:53
Clear
Clear
 Wind from NW
Wind: NW 11 km/h
Temperature: 15°C
Dew Point: 11°C
Humidity: 77%
Barometer: 1014.2 hPa
Clouds: Clear
Visibility: 14 km
2024/05/22 07:53 KSJC 220753Z AUTO 32006KT 9SM CLR 15/11 A2995 RMK AO2 SLP142 T01500106 402830111
KNUQ - Moffett Nas/Mtn, California, USA
Distance from station: N 14km
Updated: 22/05/2024 17:55
Clear
Clear
 Wind from W
Wind: W 7 km/h
Temperature: 15°C
Dew Point: 11°C
Humidity: 77%
Barometer: 1014.2 hPa
Clouds: Clear
Visibility: 11 km
2024/05/22 07:55 KNUQ 220755Z AUTO 28004KT 7SM CLR 15/11 A2995 RMK AO2
 
KPAO - Palo Alto, California, USA
Distance from station: NNW 23km
Updated: 22/05/2024 13:47
NOT Current
Clear
Clear
 Wind from NNW
Wind: NNW 22 km/h
Temperature: 16°C
Dew Point: 12°C
Humidity: 77%
Barometer: 1014.2 hPa
Clouds: Clear
Visibility: 16 km
2024/05/22 03:47 KPAO 220347Z 33012KT 10SM SKC 16/12 A2995 RMK LAST
KRHV - San Jose/Reid, California, USA
Distance from station: ENE 19km
Updated: 22/05/2024 14:47
NOT Current
Clear
Clear
 Wind from NNW
Wind: NNW 9 km/h
Temperature: 19°C
Dew Point: 4°C
Humidity: 37%
Barometer: 1014.6 hPa
Clouds: Clear
Visibility: 16 km
2024/05/22 04:47 KRHV 220447Z 33005KT 10SM SKC 19/04 A2996 RMK LAST
 
KOAK - Oakland, California, USA
Distance from station: NNW 50km
Updated: 22/05/2024 17:53
Clear
Clear
 Wind from calm
Wind: Calm
Temperature: 13°C
Dew Point: 10°C
Humidity: 82%
Barometer: 1014.6 hPa
Clouds: Clear
Visibility: 16 km
2024/05/22 07:53 KOAK 220753Z 00000KT 10SM CLR 13/10 A2996 RMK AO2 SLP145 T01280100 402280094
KSQL - San Carlos Airpo, California, USA
Distance from station: NW 34km
Updated: 22/05/2024 17:55
Clear
Clear
 Wind from NNW
Wind: NNW 6 km/h
Temperature: 13°C
Dew Point: 8°C
Humidity: 72%
Barometer: 1014.6 hPa
Clouds: Clear
Visibility: 11 km
2024/05/22 07:55 KSQL 220755Z AUTO 33003KT 7SM CLR 13/08 A2996 RMK AO2
 
KSFO - San Francisco, California, USA
Distance from station: NW 49km
Updated: 22/05/2024 17:56
Clear
Clear
 Wind from WNW
Wind: WNW 15 km/h
Temperature: 13°C
Dew Point: 9°C
Humidity: 77%
Barometer: 1014.2 hPa
Clouds: Clear
Visibility: 16 km
2024/05/22 07:56 KSFO 220756Z 30008KT 10SM CLR 13/09 A2995 RMK AO2 SLP143 T01280089 402500111 $
KE16 - San Martin, California, USA
Distance from station: ESE 43km
Updated: 22/05/2024 17:55
Mist, Clear
Mist, Clear
 Wind from calm
Wind: Calm
Temperature: 12°C
Dew Point: 9°C
Humidity: 82%
Barometer: 1015.6 hPa
Summary: Mist
Clouds: Clear
Visibility: 10 km
2024/05/22 07:55 KE16 220755Z AUTO 00000KT 6SM BR CLR 12/09 A2999 RMK AO2 PWINO PNO
 
KWVI - Watsonville, California, USA
Distance from station: SSE 44km
Updated: 22/05/2024 17:53
Mist, Overcast
Mist, Overcast
 Wind from NNE
Wind: NNE 6 km/h
Temperature: 12°C
Dew Point: 11°C
Humidity: 94%
Barometer: 1015.6 hPa
Summary: Mist
Clouds: Overcast
Visibility: 10 km
Cloud details: Overcast 152 m
2024/05/22 07:53 KWVI 220753Z AUTO 03003KT 6SM BR OVC005 12/11 A2999 RMK AO2 SLP154 T01170106 401890100
KHAF - Half Moon Bay, California, USA
Distance from station: WNW 50km
Updated: 22/05/2024 17:55
Mist, Overcast
Mist, Overcast
 Wind from calm
Wind: Calm
Temperature: 10°C
Dew Point: 9°C
Humidity: 94%
Barometer: 1015.6 hPa
Summary: Mist
Clouds: Overcast
Visibility: 8 km
Cloud details: Overcast 396 m
2024/05/22 07:55 KHAF 220755Z AUTO 00000KT 5SM BR OVC013 10/09 A2999 RMK AO2
 
KHWD - Hayward, California, USA
Distance from station: N 44km
Updated: 22/05/2024 17:54
Clear
Clear
 Wind from NNW
Wind: NNW 7 km/h
Temperature: 14°C
Dew Point: 9°C
Humidity: 72%
Barometer: 1014.2 hPa
Clouds: Clear
Visibility: 16 km
2024/05/22 07:54 KHWD 220754Z AUTO 33004KT 10SM CLR 14/09 A2995 RMK AO2 SLP151 T01440094 402670111
KLVK - Livermore, California, USA
Distance from station: NNE 51km
Updated: 22/05/2024 17:53
Clear
Clear
 Wind from W
Wind: W 7 km/h
Temperature: 13°C
Dew Point: 8°C
Humidity: 72%
Barometer: 1013.5 hPa
Clouds: Clear
Visibility: 14 km
2024/05/22 07:53 KLVK 220753Z AUTO 27004KT 9SM CLR 13/08 A2993 RMK AO2 SLP131 T01330078 402940089